Saint-Simon-De-Rimouski, Canada
Current Conditions -  °F | °C
As of 5:00 AM on Thursday 29 Jan 2015 (Local Time) from CYYY Reporting Station
Broken Clouds Broken Clouds  
Wind Chill: -16°   Ceiling: 4500
Heat Index: -10°   Visibility: 30mi
Dew Point: -15°   Wind: 7mph
Humidity: 67%   Direction: 230°SW
Pressure: 30.2"   Gusts: NA
Location:  48.2°N, 69.02°W
Report Text: CYYY 291000Z 23006KT 30SM BKN045 M10/M15 A3020 RMK SC7 SLP231
Loading
Personal Weather Stations






























Interactive Weather Map New forecast layout! Learn more

10-Day Weather Forecast

Advertisements
Track Severe Weather on mobile